Pagina principale
METAR-TAF:

METAR-TAF

Aeroporti :

Aeroporto di Ginevra-Cointrin

Ginevra, Svizzera

latitudine: 46-15N, longitudine: 006-08E, altezza: 420 m

Osservazione

Il bollettino è stato emesso 39 minuti fa, alle 12:50 UTC
Vento 3 kt da direzioni variabili
Temperature 6°C
Umidità 70%
Pressione 1021 hPa
Visibilità 10 km o più
nessuna nube inferiore a 1500 m e nessun cumulonembo

METAR: LSGG 061250Z VRB03KT CAVOK 06/01 Q1021 NOSIG

Ora: 14:29 (13:29 UTC)

Previsione

Il bollettino è stato emesso 2 ore e 4 minuti fa, alle 11:25 UTC
Previsione valida dal 06 alle 12 UTC al 07 alle 18 UTC
Vento 3 kt da direzioni variabili
Visibilità 10 km o più
Poco nuvoloso ad un'altezza di 3000 ft
Evoluzione graduale
dal 06 alle 18 UTC al 06 alle 21 UTC
Vento 10 kt da sud-ovest

TAF: LSGG 061125Z 0612/0718 VRB03KT 9999 FEW030 TX06/0614Z TN02/0705Z TX08/0714Z BECMG 0618/0621 23010KT

Osservazioni e previsioni meteorologiche di più di 4000 aeroporti (messaggi METAR e TAF).

Le stazioni disponibili sono rappresentate dai dischi gialli e rossi sulla carta.

Puntare il mouse per vedere il nome della stazione.

Clicca sopra per visualizzare le osservazioni e previsioni meteorologiche.

Per cambiare la mappa : fare clic sui pulsanti verdi con una croce nera per ingrandire, il pulsante verde con un trattino per diminuire, o sulla freccia verde per le mappe adiacenti.


METAR-TAF: